logo tempoitalia

Diretta Meteo Perugia, Italiamercoledì 15 luglio ore 07:50

Mappa
Sereno 17 °C Sereno 24 Ore: T.min 13 T.max 28
Ponente Nord Km/h 5.5 Punto di rugiada: 10 °C Umidità: 63% Visibilità: 10 Km
Il sole sorge alle: 05:43 Il sole tramonta alle: 20:48
15 Luglio 2020 07:50 tempo osservato: Sereno Sereno 17 63 1014 vento: Nord N 5.5
15 Luglio 2020 07:20 tempo osservato: Sereno Sereno 16 67 1014 vento: Nord N 7.4
15 Luglio 2020 06:50 tempo osservato: Sereno Sereno 15 76 1014 vento: Nord N 11.1
15 Luglio 2020 05:50 tempo osservato: Sereno Sereno 13 87 1014 vento: Nord N 9.3
15 Luglio 2020 05:20 tempo osservato: Sereno Sereno 13 81 1014 vento: Nord N 5.5
15 Luglio 2020 04:50 tempo osservato: Sereno Sereno 15 72 1014 vento: Nord N 9.3
15 Luglio 2020 04:20 tempo osservato: Sereno Sereno 14 82 1013 vento: Nord N/NE 11.1
15 Luglio 2020 03:50 tempo osservato: Sereno Sereno 15 76 1014 vento: Nord N/NE 11.1
15 Luglio 2020 03:20 tempo osservato: Sereno Sereno 16 72 1014 vento: Nord N 14.8
15 Luglio 2020 02:50 tempo osservato: Sereno Sereno 16 67 1014 vento: Nord N 11.1
15 Luglio 2020 02:20 tempo osservato: Sereno Sereno 16 67 1014 vento: Nord N/NO 9.3
15 Luglio 2020 01:50 tempo osservato: Sereno Sereno 16 67 1014 vento: Nord N 11.1
15 Luglio 2020 01:20 tempo osservato: Sereno Sereno 17 67 1014 vento: Nord N 14.8
15 Luglio 2020 00:50 tempo osservato: Sereno Sereno 17 67 1014 vento: Nord N 14.8
15 Luglio 2020 00:20 tempo osservato: Sereno Sereno 18 63 1014 vento: Nord N 13
14 Luglio 2020 23:50 tempo osservato: Sereno Sereno 18 63 1014 vento: Nord N/NE 14.8
14 Luglio 2020 23:20 tempo osservato: Sereno Sereno 18 63 1014 vento: Nord N 11.1
14 Luglio 2020 22:50 tempo osservato: Sereno Sereno 20 56 1013 vento: Nord N 11.1
14 Luglio 2020 22:20 tempo osservato: Sereno Sereno 21 52 1013 vento: Nord N/NO 11.1
14 Luglio 2020 21:50 tempo osservato: Sereno Sereno 21 52 1013 vento: Nord N 13
14 Luglio 2020 20:50 tempo osservato: Sereno Sereno 22 49 1012 vento: Nord N/NE 13
14 Luglio 2020 20:20 tempo osservato: Sereno Sereno 24 43 1012 vento: Nord N/NE 14.8
14 Luglio 2020 19:50 tempo osservato: Sereno Sereno 25 41 1012 vento: Nord NE 18.5
14 Luglio 2020 19:20 tempo osservato: Sereno Sereno 26 39 1012 vento: Nord NE 20.3
14 Luglio 2020 18:50 tempo osservato: Sereno Sereno 27 36 1012 vento: Nord N/NE 20.3
14 Luglio 2020 17:50 tempo osservato: Sereno Sereno 27 34 1012 vento: Nord NE 18.5
14 Luglio 2020 17:20 tempo osservato: Sereno Sereno 28 30 1012 vento: Nord NE 18.5
14 Luglio 2020 16:50 tempo osservato: Sereno Sereno 27 32 1012 vento: Nord NE 20.3
14 Luglio 2020 16:20 tempo osservato: Sereno Sereno 28 30 1012 vento: Nord N/NE 22.2
14 Luglio 2020 15:50 tempo osservato: Sereno Sereno 27 32 1012 vento: Nord N/NE 20.3
14 Luglio 2020 15:20 tempo osservato: Sereno Sereno 27 34 1012 vento: Nord NE 22.2
14 Luglio 2020 14:50 tempo osservato: Sereno Sereno 28 32 1013 vento: Nord NE 14.8
14 Luglio 2020 14:20 tempo osservato: Sereno Sereno 27 34 1013 vento: Nord N/NE 20.3
14 Luglio 2020 13:50 tempo osservato: Sereno Sereno 27 34 1013 vento: Nord N/NE 18.5
14 Luglio 2020 13:20 tempo osservato: Sereno Sereno 27 36 1013 vento: Nord NE 18.5
14 Luglio 2020 12:50 tempo osservato: Sereno Sereno 26 36 1013 vento: Nord NE 20.3
14 Luglio 2020 12:20 tempo osservato: Sereno Sereno 26 36 1014 vento: Nord NE 20.3
14 Luglio 2020 11:50 tempo osservato: Sereno Sereno 25 41 1014 vento: Nord N/NE 20.3
14 Luglio 2020 11:20 tempo osservato: Sereno Sereno 26 39 1014 vento: Nord N/NE 22.2
14 Luglio 2020 10:50 tempo osservato: Sereno Sereno 25 41 1014 vento: Nord N/NE 22.2
14 Luglio 2020 10:20 tempo osservato: Sereno Sereno 25 41 1014 vento: Nord NE 20.3
14 Luglio 2020 09:50 tempo osservato: Sereno Sereno 24 43 1014 vento: Nord NE 18.5
14 Luglio 2020 09:20 tempo osservato: Sereno Sereno 23 49 1014 vento: Nord N/NE 16.7
14 Luglio 2020 08:50 tempo osservato: Sereno Sereno 22 53 1014 vento: Nord N/NE 18.5